• Join FlightAware (Why Join?)
  • Login
  • US Flag 
03:53PM EST


 

Airport Tracker/Info


-or-


 

Live Flight TrackerFlight Track Log ✈ N305AT ✈ 03-Jun-2013 ✈ KABQ - KGUP

Flight Track Log - Related Links

Times and Time Zones

All times are in EDT time to prevent confusion due to time zone crossing. See the N305AT flight status page for this flight to view local times or setup timezone preferences in your user account.

Time Position Orientation Groundspeed Altitude Reporting Facility
EDT Latitude Longitude Course Direction KTS MPH feet Rate Location/Type
05:02PM 35.0153 -106.6489 285° West 130 150 6,200  Level Albuquerque Center
05:03PM 35.0206 -106.6917 279° West 137 158 7,000 660 Climbing Albuquerque Center
05:04PM 35.0256 -106.7167 284° West 136 157 7,300 660 Climbing Albuquerque Center
05:04PM 35.0292 -106.7411 280° West 142 163 7,800 660 Climbing Albuquerque Center
05:05PM 35.0350 -106.7639 287° West 139 160 8,000 660 Climbing Albuquerque Center
05:05PM 35.0397 -106.7903 282° West 152 175 8,500 660 Climbing Albuquerque Center
05:06PM 35.0453 -106.8139 286° West 146 168 8,700 660 Climbing Albuquerque Center
05:06PM 35.0489 -106.8425 279° West 147 169 9,200 540 Climbing Albuquerque Center
05:07PM 35.0500 -106.8644 274° West 147 169 9,300 540 Climbing Albuquerque Center
05:07PM 35.0528 -106.8906 277° West 143 165 9,800 540 Climbing Albuquerque Center
05:08PM 35.0974 -106.8633 285° West  Level Estimated
05:08PM 35.0572 -106.9161 282° West 147 169 9,900  Level Albuquerque Center
05:08PM 35.0606 -106.9353 282° West 141 162 10,200 660 Climbing Albuquerque Center
05:09PM 35.0656 -106.9628 283° West 144 166 10,600 660 Climbing Albuquerque Center
05:09PM 35.0683 -106.9800 281° West 138 159 10,900 540 Climbing Albuquerque Center
05:10PM 35.0736 -107.0086 289° West 139 160 11,200 240 Climbing Albuquerque Center
05:10PM 35.0764 -107.0272 280° West 140 161 11,200 360 Level Albuquerque Center
05:11PM 35.0834 -107.0394 289° West  Level Estimated
05:11PM 35.0822 -107.0750 278° West 144 166 11,700  Level Albuquerque Center
05:12PM 35.0864 -107.1033 280° West 140 161 12,400 540 Climbing Albuquerque Center
05:13PM 35.0911 -107.1661 275° West 151 174 12,700 60 Climbing Albuquerque Center
05:14PM 35.0919 -107.2250 271° West 169 194 12,600 -120 Descending Albuquerque Center
05:15PM 35.0944 -107.2783 273° West 161 185 12,500  Descending Albuquerque Center
05:16PM 35.1019 -107.3317 280° West 160 184 12,700  Climbing Albuquerque Center
05:17PM 35.1097 -107.3869 280° West 164 189 12,600  Descending Albuquerque Center
05:18PM 35.1258 -107.4408 290° West 168 193 12,700 -60 Climbing Albuquerque Center
05:19PM 35.1431 -107.4933 292° West 167 192 12,500  Descending Albuquerque Center
05:20PM 35.1581 -107.5497 288° West 166 191 12,700  Climbing Albuquerque Center
05:21PM 35.1725 -107.6133 286° West 172 198 12,600  Descending Albuquerque Center
05:22PM 35.1867 -107.6642 289° West 166 191 12,800  Climbing Albuquerque Center
05:23PM 35.2017 -107.7253 287° West 168 193 12,600 -60 Descending Albuquerque Center
05:24PM 35.2189 -107.7775 292° West 171 197 12,700  Climbing Albuquerque Center
05:25PM 35.2458 -107.8358 300° West 175 201 12,600 -180 Descending Albuquerque Center
05:26PM 35.2672 -107.8861 298° West 175 201 12,400 -240 Descending Albuquerque Center
05:27PM 35.2861 -107.9381 294° West 174 200 12,200 -180 Descending Albuquerque Center
05:28PM 35.3086 -107.9992 294° West 175 201 12,100 -240 Descending Albuquerque Center
05:29PM 35.3289 -108.0533 295° West 178 205 11,800 -540 Descending Albuquerque Center
05:30PM 35.3553 -108.1150 298° West 182 209 11,000 -540 Descending Albuquerque Center
05:31PM 35.3772 -108.1636 299° West 177 204 10,700 -420 Descending Albuquerque Center
05:32PM 35.4031 -108.2217 299° West 174 200 10,200 -480 Descending Albuquerque Center
05:33PM 35.4242 -108.2689 299° West 170 196 9,800 -420 Descending Albuquerque Center
05:34PM 35.4461 -108.3158 300° West 167 192 9,400 -120 Descending Albuquerque Center
05:36PM 35.4708 -108.3742 298° West 169 194 9,600 180 Climbing Albuquerque Center